sensor_id;sensor_type;location;lat;lon;timestamp;P1;durP1;ratioP1;P2;durP2;ratioP2
56511;SDS011;42408;53.238;5.686;2023-04-25T00:02:03;13.33;;;4.00;;
56511;SDS011;42408;53.238;5.686;2023-04-25T00:04:29;16.97;;;5.33;;
56511;SDS011;42408;53.238;5.686;2023-04-25T00:06:54;12.43;;;4.20;;
56511;SDS011;42408;53.238;5.686;2023-04-25T00:09:21;11.17;;;3.60;;
56511;SDS011;42408;53.238;5.686;2023-04-25T00:11:49;12.00;;;3.83;;
56511;SDS011;42408;53.238;5.686;2023-04-25T00:14:15;9.83;;;3.63;;
56511;SDS011;42408;53.238;5.686;2023-04-25T00:16:41;11.05;;;3.20;;
56511;SDS011;42408;53.238;5.686;2023-04-25T00:19:09;7.95;;;3.20;;
56511;SDS011;42408;53.238;5.686;2023-04-25T00:21:35;12.10;;;4.27;;
56511;SDS011;42408;53.238;5.686;2023-04-25T00:24:02;10.25;;;3.08;;
56511;SDS011;42408;53.238;5.686;2023-04-25T00:26:29;8.90;;;2.80;;
56511;SDS011;42408;53.238;5.686;2023-04-25T00:28:55;9.40;;;2.97;;
56511;SDS011;42408;53.238;5.686;2023-04-25T00:31:21;11.57;;;3.20;;
56511;SDS011;42408;53.238;5.686;2023-04-25T00:33:47;13.80;;;3.40;;
56511;SDS011;42408;53.238;5.686;2023-04-25T00:36:13;9.97;;;3.90;;
56511;SDS011;42408;53.238;5.686;2023-04-25T00:38:39;15.07;;;5.13;;
56511;SDS011;42408;53.238;5.686;2023-04-25T00:41:05;13.93;;;3.97;;
56511;SDS011;42408;53.238;5.686;2023-04-25T00:45:59;10.88;;;3.40;;
56511;SDS011;42408;53.238;5.686;2023-04-25T00:48:26;14.02;;;3.85;;
56511;SDS011;42408;53.238;5.686;2023-04-25T00:50:55;12.70;;;3.47;;
56511;SDS011;42408;53.238;5.686;2023-04-25T00:53:23;13.43;;;4.00;;
56511;SDS011;42408;53.238;5.686;2023-04-25T00:55:50;13.85;;;3.97;;
56511;SDS011;42408;53.238;5.686;2023-04-25T00:58:17;11.75;;;4.47;;
56511;SDS011;42408;53.238;5.686;2023-04-25T01:03:13;11.63;;;4.15;;
56511;SDS011;42408;53.238;5.686;2023-04-25T01:05:44;14.25;;;4.03;;
56511;SDS011;42408;53.238;5.686;2023-04-25T01:10:37;8.88;;;4.60;;
56511;SDS011;42408;53.238;5.686;2023-04-25T01:13:03;10.97;;;2.70;;
56511;SDS011;42408;53.238;5.686;2023-04-25T01:15:29;10.60;;;3.10;;
56511;SDS011;42408;53.238;5.686;2023-04-25T01:17:55;12.67;;;3.20;;
56511;SDS011;42408;53.238;5.686;2023-04-25T01:20:22;10.00;;;2.92;;
56511;SDS011;42408;53.238;5.686;2023-04-25T01:22:51;9.05;;;2.58;;
56511;SDS011;42408;53.238;5.686;2023-04-25T01:25:18;8.70;;;2.38;;
56511;SDS011;42408;53.238;5.686;2023-04-25T01:27:44;9.88;;;3.40;;
56511;SDS011;42408;53.238;5.686;2023-04-25T01:30:10;9.50;;;2.78;;
56511;SDS011;42408;53.238;5.686;2023-04-25T01:32:36;10.40;;;3.27;;
56511;SDS011;42408;53.238;5.686;2023-04-25T01:35:06;9.80;;;2.95;;
56511;SDS011;42408;53.238;5.686;2023-04-25T01:37:37;8.85;;;3.25;;
56511;SDS011;42408;53.238;5.686;2023-04-25T01:40:07;7.63;;;2.70;;
56511;SDS011;42408;53.238;5.686;2023-04-25T01:42:34;10.77;;;2.83;;
56511;SDS011;42408;53.238;5.686;2023-04-25T01:45:01;11.80;;;3.22;;
56511;SDS011;42408;53.238;5.686;2023-04-25T01:47:27;8.75;;;3.13;;
56511;SDS011;42408;53.238;5.686;2023-04-25T01:49:54;11.50;;;3.00;;
56511;SDS011;42408;53.238;5.686;2023-04-25T01:52:20;6.65;;;2.35;;
56511;SDS011;42408;53.238;5.686;2023-04-25T01:54:45;6.80;;;2.50;;
56511;SDS011;42408;53.238;5.686;2023-04-25T01:57:11;4.82;;;2.10;;
56511;SDS011;42408;53.238;5.686;2023-04-25T01:59:37;8.37;;;3.10;;
56511;SDS011;42408;53.238;5.686;2023-04-25T02:02:03;9.80;;;2.70;;
56511;SDS011;42408;53.238;5.686;2023-04-25T02:04:29;6.50;;;2.13;;
56511;SDS011;42408;53.238;5.686;2023-04-25T02:06:55;10.68;;;2.50;;
56511;SDS011;42408;53.238;5.686;2023-04-25T02:09:21;8.23;;;2.30;;
56511;SDS011;42408;53.238;5.686;2023-04-25T02:11:47;8.48;;;2.90;;
56511;SDS011;42408;53.238;5.686;2023-04-25T02:14:13;9.60;;;2.37;;
56511;SDS011;42408;53.238;5.686;2023-04-25T02:16:39;10.37;;;2.67;;
56511;SDS011;42408;53.238;5.686;2023-04-25T02:19:05;10.13;;;3.10;;
56511;SDS011;42408;53.238;5.686;2023-04-25T02:21:31;11.23;;;3.38;;
56511;SDS011;42408;53.238;5.686;2023-04-25T02:23:57;8.23;;;2.78;;
56511;SDS011;42408;53.238;5.686;2023-04-25T02:26:23;10.10;;;2.80;;
56511;SDS011;42408;53.238;5.686;2023-04-25T02:28:49;8.53;;;3.70;;
56511;SDS011;42408;53.238;5.686;2023-04-25T02:31:15;8.63;;;3.05;;
56511;SDS011;42408;53.238;5.686;2023-04-25T02:33:41;14.83;;;3.50;;
56511;SDS011;42408;53.238;5.686;2023-04-25T02:36:07;11.15;;;3.13;;
56511;SDS011;42408;53.238;5.686;2023-04-25T02:38:33;10.03;;;3.23;;
56511;SDS011;42408;53.238;5.686;2023-04-25T02:40:59;11.77;;;2.97;;
56511;SDS011;42408;53.238;5.686;2023-04-25T02:43:25;12.30;;;3.53;;
56511;SDS011;42408;53.238;5.686;2023-04-25T02:45:50;10.73;;;3.30;;
56511;SDS011;42408;53.238;5.686;2023-04-25T02:48:16;13.67;;;4.00;;
56511;SDS011;42408;53.238;5.686;2023-04-25T02:50:42;13.23;;;3.20;;
56511;SDS011;42408;53.238;5.686;2023-04-25T02:53:08;11.37;;;3.13;;
56511;SDS011;42408;53.238;5.686;2023-04-25T02:55:33;9.13;;;2.77;;
56511;SDS011;42408;53.238;5.686;2023-04-25T02:57:59;11.50;;;3.40;;
56511;SDS011;42408;53.238;5.686;2023-04-25T03:00:24;10.90;;;3.07;;
56511;SDS011;42408;53.238;5.686;2023-04-25T03:02:50;16.80;;;3.73;;
56511;SDS011;42408;53.238;5.686;2023-04-25T03:05:16;13.57;;;3.00;;
56511;SDS011;42408;53.238;5.686;2023-04-25T03:07:42;8.60;;;3.45;;
56511;SDS011;42408;53.238;5.686;2023-04-25T03:10:09;10.13;;;2.85;;
56511;SDS011;42408;53.238;5.686;2023-04-25T03:12:35;9.25;;;2.70;;
56511;SDS011;42408;53.238;5.686;2023-04-25T03:15:02;7.50;;;2.53;;
56511;SDS011;42408;53.238;5.686;2023-04-25T03:17:28;8.07;;;2.92;;
56511;SDS011;42408;53.238;5.686;2023-04-25T03:19:53;11.57;;;3.03;;
56511;SDS011;42408;53.238;5.686;2023-04-25T03:22:19;10.37;;;2.43;;
56511;SDS011;42408;53.238;5.686;2023-04-25T03:24:45;9.17;;;2.23;;
56511;SDS011;42408;53.238;5.686;2023-04-25T03:27:10;8.07;;;2.33;;
56511;SDS011;42408;53.238;5.686;2023-04-25T03:29:36;8.20;;;2.77;;
56511;SDS011;42408;53.238;5.686;2023-04-25T03:32:01;9.20;;;2.97;;
56511;SDS011;42408;53.238;5.686;2023-04-25T03:34:27;8.80;;;2.67;;
56511;SDS011;42408;53.238;5.686;2023-04-25T03:36:53;10.30;;;2.80;;
56511;SDS011;42408;53.238;5.686;2023-04-25T03:39:19;10.73;;;2.70;;
56511;SDS011;42408;53.238;5.686;2023-04-25T03:41:44;9.07;;;2.70;;
56511;SDS011;42408;53.238;5.686;2023-04-25T03:44:10;10.17;;;2.60;;
56511;SDS011;42408;53.238;5.686;2023-04-25T03:46:36;11.07;;;2.47;;
56511;SDS011;42408;53.238;5.686;2023-04-25T03:49:01;9.50;;;2.93;;
56511;SDS011;42408;53.238;5.686;2023-04-25T03:51:27;12.23;;;2.90;;
56511;SDS011;42408;53.238;5.686;2023-04-25T03:53:53;9.73;;;3.00;;
56511;SDS011;42408;53.238;5.686;2023-04-25T03:56:18;10.93;;;2.90;;
56511;SDS011;42408;53.238;5.686;2023-04-25T03:58:45;11.27;;;3.28;;
56511;SDS011;42408;53.238;5.686;2023-04-25T04:01:10;13.73;;;3.47;;
56511;SDS011;42408;53.238;5.686;2023-04-25T04:03:36;10.57;;;3.57;;
56511;SDS011;42408;53.238;5.686;2023-04-25T04:06:02;9.57;;;3.37;;
56511;SDS011;42408;53.238;5.686;2023-04-25T04:08:29;9.90;;;2.65;;
56511;SDS011;42408;53.238;5.686;2023-04-25T04:10:55;8.67;;;2.77;;
56511;SDS011;42408;53.238;5.686;2023-04-25T04:13:22;9.52;;;2.67;;
56511;SDS011;42408;53.238;5.686;2023-04-25T04:15:47;6.70;;;2.67;;
56511;SDS011;42408;53.238;5.686;2023-04-25T04:18:13;8.70;;;2.33;;
56511;SDS011;42408;53.238;5.686;2023-04-25T04:20:39;8.93;;;2.40;;
56511;SDS011;42408;53.238;5.686;2023-04-25T04:23:04;9.37;;;2.57;;
56511;SDS011;42408;53.238;5.686;2023-04-25T04:25:30;8.43;;;2.50;;
56511;SDS011;42408;53.238;5.686;2023-04-25T04:27:56;8.97;;;2.67;;
56511;SDS011;42408;53.238;5.686;2023-04-25T04:30:22;7.73;;;2.23;;
56511;SDS011;42408;53.238;5.686;2023-04-25T04:32:54;9.00;;;2.40;;
56511;SDS011;42408;53.238;5.686;2023-04-25T04:35:21;8.57;;;2.33;;
56511;SDS011;42408;53.238;5.686;2023-04-25T04:37:47;4.50;;;1.80;;
56511;SDS011;42408;53.238;5.686;2023-04-25T04:40:13;6.03;;;2.20;;
56511;SDS011;42408;53.238;5.686;2023-04-25T04:42:41;6.13;;;1.90;;
56511;SDS011;42408;53.238;5.686;2023-04-25T04:47:33;6.55;;;2.17;;
56511;SDS011;42408;53.238;5.686;2023-04-25T04:50:02;6.20;;;2.58;;
56511;SDS011;42408;53.238;5.686;2023-04-25T04:52:29;9.20;;;2.88;;
56511;SDS011;42408;53.238;5.686;2023-04-25T04:54:55;7.23;;;2.13;;
56511;SDS011;42408;53.238;5.686;2023-04-25T04:57:20;5.80;;;2.63;;
56511;SDS011;42408;53.238;5.686;2023-04-25T04:59:46;8.30;;;3.40;;
56511;SDS011;42408;53.238;5.686;2023-04-25T05:02:12;9.73;;;2.53;;
56511;SDS011;42408;53.238;5.686;2023-04-25T05:04:37;9.60;;;2.73;;
56511;SDS011;42408;53.238;5.686;2023-04-25T05:07:03;9.30;;;2.40;;
56511;SDS011;42408;53.238;5.686;2023-04-25T05:09:28;8.67;;;2.47;;
56511;SDS011;42408;53.238;5.686;2023-04-25T05:11:55;5.68;;;1.92;;
56511;SDS011;42408;53.238;5.686;2023-04-25T05:14:20;8.37;;;2.30;;
56511;SDS011;42408;53.238;5.686;2023-04-25T05:16:47;7.18;;;2.33;;
56511;SDS011;42408;53.238;5.686;2023-04-25T05:19:13;13.93;;;2.93;;
56511;SDS011;42408;53.238;5.686;2023-04-25T05:21:39;11.07;;;3.07;;
56511;SDS011;42408;53.238;5.686;2023-04-25T05:24:04;8.13;;;2.70;;
56511;SDS011;42408;53.238;5.686;2023-04-25T05:26:30;9.37;;;2.97;;
56511;SDS011;42408;53.238;5.686;2023-04-25T05:28:59;11.13;;;2.57;;
56511;SDS011;42408;53.238;5.686;2023-04-25T05:31:25;8.85;;;2.53;;
56511;SDS011;42408;53.238;5.686;2023-04-25T05:33:51;7.80;;;2.60;;
56511;SDS011;42408;53.238;5.686;2023-04-25T05:36:20;6.53;;;2.15;;
56511;SDS011;42408;53.238;5.686;2023-04-25T05:38:46;6.00;;;1.88;;
56511;SDS011;42408;53.238;5.686;2023-04-25T05:41:12;7.57;;;2.07;;
56511;SDS011;42408;53.238;5.686;2023-04-25T05:43:37;11.00;;;2.30;;
56511;SDS011;42408;53.238;5.686;2023-04-25T05:46:03;7.13;;;2.10;;
56511;SDS011;42408;53.238;5.686;2023-04-25T05:48:29;5.10;;;1.83;;
56511;SDS011;42408;53.238;5.686;2023-04-25T05:50:55;6.60;;;2.17;;
56511;SDS011;42408;53.238;5.686;2023-04-25T05:53:21;5.40;;;1.90;;
56511;SDS011;42408;53.238;5.686;2023-04-25T05:55:47;5.93;;;1.88;;
56511;SDS011;42408;53.238;5.686;2023-04-25T05:58:12;6.90;;;2.00;;
56511;SDS011;42408;53.238;5.686;2023-04-25T06:00:38;6.13;;;1.80;;
56511;SDS011;42408;53.238;5.686;2023-04-25T06:03:06;8.90;;;2.10;;
56511;SDS011;42408;53.238;5.686;2023-04-25T06:05:34;8.48;;;2.20;;
56511;SDS011;42408;53.238;5.686;2023-04-25T06:08:00;9.93;;;2.90;;
56511;SDS011;42408;53.238;5.686;2023-04-25T06:10:26;4.80;;;1.90;;
56511;SDS011;42408;53.238;5.686;2023-04-25T06:12:52;9.03;;;1.97;;
56511;SDS011;42408;53.238;5.686;2023-04-25T06:15:17;6.77;;;2.60;;
56511;SDS011;42408;53.238;5.686;2023-04-25T06:17:43;5.43;;;2.20;;
56511;SDS011;42408;53.238;5.686;2023-04-25T06:20:09;10.83;;;3.03;;
56511;SDS011;42408;53.238;5.686;2023-04-25T06:22:35;7.15;;;2.17;;
56511;SDS011;42408;53.238;5.686;2023-04-25T06:25:00;7.73;;;2.00;;
56511;SDS011;42408;53.238;5.686;2023-04-25T06:27:29;9.35;;;2.63;;
56511;SDS011;42408;53.238;5.686;2023-04-25T06:29:54;10.43;;;2.93;;
56511;SDS011;42408;53.238;5.686;2023-04-25T06:32:20;10.90;;;2.60;;
56511;SDS011;42408;53.238;5.686;2023-04-25T06:34:46;8.50;;;3.20;;
56511;SDS011;42408;53.238;5.686;2023-04-25T06:37:11;7.83;;;2.23;;
56511;SDS011;42408;53.238;5.686;2023-04-25T06:39:37;12.40;;;2.30;;
56511;SDS011;42408;53.238;5.686;2023-04-25T06:42:02;10.57;;;2.60;;
56511;SDS011;42408;53.238;5.686;2023-04-25T06:44:28;7.40;;;2.07;;
56511;SDS011;42408;53.238;5.686;2023-04-25T06:46:55;13.27;;;2.80;;
56511;SDS011;42408;53.238;5.686;2023-04-25T06:49:20;5.60;;;1.73;;
56511;SDS011;42408;53.238;5.686;2023-04-25T06:51:46;5.60;;;1.80;;
56511;SDS011;42408;53.238;5.686;2023-04-25T06:54:11;5.57;;;1.93;;
56511;SDS011;42408;53.238;5.686;2023-04-25T06:56:37;5.17;;;1.70;;
56511;SDS011;42408;53.238;5.686;2023-04-25T06:59:03;7.10;;;1.83;;
56511;SDS011;42408;53.238;5.686;2023-04-25T07:01:28;3.93;;;1.50;;
56511;SDS011;42408;53.238;5.686;2023-04-25T07:03:54;6.67;;;2.23;;
56511;SDS011;42408;53.238;5.686;2023-04-25T07:06:19;3.97;;;1.60;;
56511;SDS011;42408;53.238;5.686;2023-04-25T07:08:45;5.20;;;2.00;;
56511;SDS011;42408;53.238;5.686;2023-04-25T07:11:11;10.03;;;2.23;;
56511;SDS011;42408;53.238;5.686;2023-04-25T07:13:36;6.03;;;2.37;;
56511;SDS011;42408;53.238;5.686;2023-04-25T07:16:02;8.63;;;2.33;;
56511;SDS011;42408;53.238;5.686;2023-04-25T07:18:28;9.53;;;2.77;;
56511;SDS011;42408;53.238;5.686;2023-04-25T07:20:54;8.60;;;2.20;;
56511;SDS011;42408;53.238;5.686;2023-04-25T07:23:19;7.37;;;3.03;;
56511;SDS011;42408;53.238;5.686;2023-04-25T07:25:45;12.23;;;2.87;;
56511;SDS011;42408;53.238;5.686;2023-04-25T07:28:11;10.10;;;2.20;;
56511;SDS011;42408;53.238;5.686;2023-04-25T07:30:37;8.23;;;2.53;;
56511;SDS011;42408;53.238;5.686;2023-04-25T07:33:02;8.43;;;2.23;;
56511;SDS011;42408;53.238;5.686;2023-04-25T07:35:28;10.27;;;3.30;;
56511;SDS011;42408;53.238;5.686;2023-04-25T07:37:54;8.20;;;3.30;;
56511;SDS011;42408;53.238;5.686;2023-04-25T07:40:20;9.82;;;2.40;;
56511;SDS011;42408;53.238;5.686;2023-04-25T07:42:46;8.43;;;2.25;;
56511;SDS011;42408;53.238;5.686;2023-04-25T07:45:12;6.83;;;2.10;;
56511;SDS011;42408;53.238;5.686;2023-04-25T07:47:37;5.53;;;2.03;;
56511;SDS011;42408;53.238;5.686;2023-04-25T07:50:03;7.00;;;1.90;;
56511;SDS011;42408;53.238;5.686;2023-04-25T07:52:29;10.55;;;2.03;;
56511;SDS011;42408;53.238;5.686;2023-04-25T07:54:55;10.53;;;1.93;;
56511;SDS011;42408;53.238;5.686;2023-04-25T07:57:22;8.45;;;2.47;;
56511;SDS011;42408;53.238;5.686;2023-04-25T07:59:49;9.70;;;2.63;;
56511;SDS011;42408;53.238;5.686;2023-04-25T08:02:14;8.10;;;2.30;;
56511;SDS011;42408;53.238;5.686;2023-04-25T08:04:40;10.10;;;2.10;;
56511;SDS011;42408;53.238;5.686;2023-04-25T08:07:06;11.77;;;2.63;;
56511;SDS011;42408;53.238;5.686;2023-04-25T08:09:31;10.00;;;2.50;;
56511;SDS011;42408;53.238;5.686;2023-04-25T08:12:00;11.50;;;2.67;;
56511;SDS011;42408;53.238;5.686;2023-04-25T08:14:27;9.43;;;2.40;;
56511;SDS011;42408;53.238;5.686;2023-04-25T08:19:19;9.05;;;2.80;;
56511;SDS011;42408;53.238;5.686;2023-04-25T08:21:45;12.90;;;2.40;;
56511;SDS011;42408;53.238;5.686;2023-04-25T08:24:10;8.53;;;2.40;;
56511;SDS011;42408;53.238;5.686;2023-04-25T08:26:36;11.20;;;2.70;;
56511;SDS011;42408;53.238;5.686;2023-04-25T08:29:03;10.50;;;2.92;;
56511;SDS011;42408;53.238;5.686;2023-04-25T08:31:29;7.80;;;2.53;;
56511;SDS011;42408;53.238;5.686;2023-04-25T08:33:55;9.67;;;2.80;;
56511;SDS011;42408;53.238;5.686;2023-04-25T08:36:20;7.13;;;2.30;;
56511;SDS011;42408;53.238;5.686;2023-04-25T08:38:46;10.87;;;2.17;;
56511;SDS011;42408;53.238;5.686;2023-04-25T08:41:12;9.97;;;2.37;;
56511;SDS011;42408;53.238;5.686;2023-04-25T08:43:39;7.78;;;2.15;;
56511;SDS011;42408;53.238;5.686;2023-04-25T08:46:08;7.78;;;2.13;;
56511;SDS011;42408;53.238;5.686;2023-04-25T08:48:34;9.32;;;2.25;;
56511;SDS011;42408;53.238;5.686;2023-04-25T08:51:01;7.00;;;1.70;;
56511;SDS011;42408;53.238;5.686;2023-04-25T08:53:29;9.45;;;2.42;;
56511;SDS011;42408;53.238;5.686;2023-04-25T08:55:59;7.70;;;2.22;;
56511;SDS011;42408;53.238;5.686;2023-04-25T08:58:28;7.50;;;2.60;;
56511;SDS011;42408;53.238;5.686;2023-04-25T09:00:54;11.23;;;2.37;;
56511;SDS011;42408;53.238;5.686;2023-04-25T09:03:20;10.63;;;3.03;;
56511;SDS011;42408;53.238;5.686;2023-04-25T09:05:46;6.47;;;2.10;;
56511;SDS011;42408;53.238;5.686;2023-04-25T09:08:11;9.90;;;2.10;;
56511;SDS011;42408;53.238;5.686;2023-04-25T09:10:37;11.30;;;2.37;;
56511;SDS011;42408;53.238;5.686;2023-04-25T09:13:05;6.40;;;2.35;;
56511;SDS011;42408;53.238;5.686;2023-04-25T09:15:32;7.57;;;2.22;;
56511;SDS011;42408;53.238;5.686;2023-04-25T09:18:00;7.72;;;2.28;;
56511;SDS011;42408;53.238;5.686;2023-04-25T09:20:26;6.95;;;2.05;;
56511;SDS011;42408;53.238;5.686;2023-04-25T09:23:02;6.80;;;1.70;;
56511;SDS011;42408;53.238;5.686;2023-04-25T09:25:34;9.05;;;2.92;;
56511;SDS011;42408;53.238;5.686;2023-04-25T09:28:04;6.35;;;2.10;;
56511;SDS011;42408;53.238;5.686;2023-04-25T09:30:32;4.53;;;1.85;;
56511;SDS011;42408;53.238;5.686;2023-04-25T09:33:09;6.47;;;2.10;;
56511;SDS011;42408;53.238;5.686;2023-04-25T09:35:36;6.55;;;2.10;;
56511;SDS011;42408;53.238;5.686;2023-04-25T09:38:07;10.27;;;1.95;;
56511;SDS011;42408;53.238;5.686;2023-04-25T09:40:40;8.57;;;2.10;;
56511;SDS011;42408;53.238;5.686;2023-04-25T09:43:25;11.13;;;2.53;;
56511;SDS011;42408;53.238;5.686;2023-04-25T09:45:53;5.38;;;1.80;;
56511;SDS011;42408;53.238;5.686;2023-04-25T09:48:22;10.25;;;2.28;;
56511;SDS011;42408;53.238;5.686;2023-04-25T09:51:25;7.60;;;2.15;;
56511;SDS011;42408;53.238;5.686;2023-04-25T09:53:44;6.00;;;2.10;;
56511;SDS011;42408;53.238;5.686;2023-04-25T09:56:12;10.63;;;2.45;;
56511;SDS011;42408;53.238;5.686;2023-04-25T09:58:38;7.85;;;2.40;;
56511;SDS011;42408;53.238;5.686;2023-04-25T10:01:06;7.68;;;2.40;;
56511;SDS011;42408;53.238;5.686;2023-04-25T10:03:34;5.43;;;1.75;;
56511;SDS011;42408;53.238;5.686;2023-04-25T10:06:02;9.02;;;2.38;;
56511;SDS011;42408;53.238;5.686;2023-04-25T10:08:32;8.60;;;3.00;;
56511;SDS011;42408;53.238;5.686;2023-04-25T10:11:01;6.53;;;1.95;;
56511;SDS011;42408;53.238;5.686;2023-04-25T10:13:32;7.70;;;2.05;;
56511;SDS011;42408;53.238;5.686;2023-04-25T10:16:00;7.38;;;2.10;;
56511;SDS011;42408;53.238;5.686;2023-04-25T10:18:28;11.30;;;2.60;;
56511;SDS011;42408;53.238;5.686;2023-04-25T10:20:55;7.82;;;2.30;;
56511;SDS011;42408;53.238;5.686;2023-04-25T10:23:23;11.55;;;2.75;;
56511;SDS011;42408;53.238;5.686;2023-04-25T10:25:52;7.35;;;2.20;;
56511;SDS011;42408;53.238;5.686;2023-04-25T10:28:19;7.45;;;2.17;;
56511;SDS011;42408;53.238;5.686;2023-04-25T10:30:58;10.15;;;2.90;;
56511;SDS011;42408;53.238;5.686;2023-04-25T10:33:34;8.73;;;2.20;;
56511;SDS011;42408;53.238;5.686;2023-04-25T10:36:12;8.02;;;2.03;;
56511;SDS011;42408;53.238;5.686;2023-04-25T10:38:40;5.15;;;1.70;;
56511;SDS011;42408;53.238;5.686;2023-04-25T10:41:08;6.03;;;1.48;;
56511;SDS011;42408;53.238;5.686;2023-04-25T10:43:41;6.25;;;1.75;;
56511;SDS011;42408;53.238;5.686;2023-04-25T10:51:24;7.60;;;2.47;;
56511;SDS011;42408;53.238;5.686;2023-04-25T10:56:20;8.52;;;2.35;;
56511;SDS011;42408;53.238;5.686;2023-04-25T10:58:48;7.07;;;2.35;;
56511;SDS011;42408;53.238;5.686;2023-04-25T11:01:15;7.93;;;2.60;;
56511;SDS011;42408;53.238;5.686;2023-04-25T11:03:44;8.77;;;2.80;;
56511;SDS011;42408;53.238;5.686;2023-04-25T11:06:15;8.93;;;2.50;;
56511;SDS011;42408;53.238;5.686;2023-04-25T11:08:47;8.38;;;2.60;;
56511;SDS011;42408;53.238;5.686;2023-04-25T11:11:15;6.07;;;2.20;;
56511;SDS011;42408;53.238;5.686;2023-04-25T11:13:47;10.38;;;3.08;;
56511;SDS011;42408;53.238;5.686;2023-04-25T11:16:13;8.85;;;2.50;;
56511;SDS011;42408;53.238;5.686;2023-04-25T11:18:42;9.90;;;3.47;;
56511;SDS011;42408;53.238;5.686;2023-04-25T11:21:09;7.90;;;2.08;;
56511;SDS011;42408;53.238;5.686;2023-04-25T11:23:35;8.02;;;2.88;;
56511;SDS011;42408;53.238;5.686;2023-04-25T11:26:01;7.00;;;2.50;;
56511;SDS011;42408;53.238;5.686;2023-04-25T11:28:28;12.02;;;3.00;;
56511;SDS011;42408;53.238;5.686;2023-04-25T11:30:54;9.30;;;2.80;;
56511;SDS011;42408;53.238;5.686;2023-04-25T11:33:24;8.73;;;2.53;;
56511;SDS011;42408;53.238;5.686;2023-04-25T11:35:52;12.73;;;2.83;;
56511;SDS011;42408;53.238;5.686;2023-04-25T11:38:19;9.48;;;2.53;;
56511;SDS011;42408;53.238;5.686;2023-04-25T11:40:49;6.67;;;2.20;;
56511;SDS011;42408;53.238;5.686;2023-04-25T11:43:21;6.63;;;2.03;;
56511;SDS011;42408;53.238;5.686;2023-04-25T11:45:50;8.05;;;2.97;;
56511;SDS011;42408;53.238;5.686;2023-04-25T11:48:17;7.63;;;2.20;;
56511;SDS011;42408;53.238;5.686;2023-04-25T11:50:46;10.48;;;2.53;;
56511;SDS011;42408;53.238;5.686;2023-04-25T11:53:11;10.27;;;2.70;;
56511;SDS011;42408;53.238;5.686;2023-04-25T11:55:37;7.82;;;2.00;;
56511;SDS011;42408;53.238;5.686;2023-04-25T11:58:04;15.95;;;3.08;;
56511;SDS011;42408;53.238;5.686;2023-04-25T12:00:31;7.47;;;1.90;;
56511;SDS011;42408;53.238;5.686;2023-04-25T12:02:57;8.47;;;2.27;;
56511;SDS011;42408;53.238;5.686;2023-04-25T12:05:23;6.13;;;2.10;;
56511;SDS011;42408;53.238;5.686;2023-04-25T12:07:51;8.05;;;1.98;;
56511;SDS011;42408;53.238;5.686;2023-04-25T12:10:17;5.83;;;1.80;;
56511;SDS011;42408;53.238;5.686;2023-04-25T12:12:44;7.47;;;2.13;;
56511;SDS011;42408;53.238;5.686;2023-04-25T12:15:12;6.25;;;2.55;;
56511;SDS011;42408;53.238;5.686;2023-04-25T12:17:40;10.98;;;2.85;;
56511;SDS011;42408;53.238;5.686;2023-04-25T12:20:10;8.27;;;2.55;;
56511;SDS011;42408;53.238;5.686;2023-04-25T12:22:37;8.55;;;2.28;;
56511;SDS011;42408;53.238;5.686;2023-04-25T12:25:05;8.73;;;3.13;;
56511;SDS011;42408;53.238;5.686;2023-04-25T12:27:32;10.40;;;2.83;;
56511;SDS011;42408;53.238;5.686;2023-04-25T12:29:58;9.45;;;2.55;;
56511;SDS011;42408;53.238;5.686;2023-04-25T12:32:24;10.32;;;2.60;;
56511;SDS011;42408;53.238;5.686;2023-04-25T12:34:51;8.10;;;2.30;;
56511;SDS011;42408;53.238;5.686;2023-04-25T12:37:17;9.93;;;2.30;;
56511;SDS011;42408;53.238;5.686;2023-04-25T12:39:42;13.33;;;2.70;;
56511;SDS011;42408;53.238;5.686;2023-04-25T12:42:08;6.83;;;2.17;;
56511;SDS011;42408;53.238;5.686;2023-04-25T12:44:36;6.53;;;2.05;;
56511;SDS011;42408;53.238;5.686;2023-04-25T12:47:03;6.53;;;1.90;;
56511;SDS011;42408;53.238;5.686;2023-04-25T12:49:28;5.20;;;2.30;;
56511;SDS011;42408;53.238;5.686;2023-04-25T12:51:54;8.47;;;2.50;;
56511;SDS011;42408;53.238;5.686;2023-04-25T12:54:20;8.33;;;2.33;;
56511;SDS011;42408;53.238;5.686;2023-04-25T12:56:46;7.63;;;2.10;;
56511;SDS011;42408;53.238;5.686;2023-04-25T12:59:12;8.88;;;3.13;;
56511;SDS011;42408;53.238;5.686;2023-04-25T13:01:38;5.23;;;2.40;;
56511;SDS011;42408;53.238;5.686;2023-04-25T13:04:03;8.57;;;2.60;;
56511;SDS011;42408;53.238;5.686;2023-04-25T13:06:29;5.43;;;2.03;;
56511;SDS011;42408;53.238;5.686;2023-04-25T13:08:56;8.70;;;2.28;;
56511;SDS011;42408;53.238;5.686;2023-04-25T13:11:21;9.33;;;2.07;;
56511;SDS011;42408;53.238;5.686;2023-04-25T13:13:47;6.33;;;1.80;;
56511;SDS011;42408;53.238;5.686;2023-04-25T13:16:12;7.73;;;2.30;;
56511;SDS011;42408;53.238;5.686;2023-04-25T13:18:39;7.05;;;2.30;;
56511;SDS011;42408;53.238;5.686;2023-04-25T13:21:05;8.88;;;2.28;;
56511;SDS011;42408;53.238;5.686;2023-04-25T13:23:31;6.20;;;1.90;;
56511;SDS011;42408;53.238;5.686;2023-04-25T13:25:56;9.70;;;1.87;;
56511;SDS011;42408;53.238;5.686;2023-04-25T13:28:23;9.23;;;2.30;;
56511;SDS011;42408;53.238;5.686;2023-04-25T13:30:50;8.38;;;2.38;;
56511;SDS011;42408;53.238;5.686;2023-04-25T13:33:16;7.35;;;2.30;;
56511;SDS011;42408;53.238;5.686;2023-04-25T13:35:42;8.00;;;2.33;;
56511;SDS011;42408;53.238;5.686;2023-04-25T13:38:08;8.93;;;2.30;;
56511;SDS011;42408;53.238;5.686;2023-04-25T13:40:34;5.87;;;2.00;;
56511;SDS011;42408;53.238;5.686;2023-04-25T13:43:00;11.20;;;2.55;;
56511;SDS011;42408;53.238;5.686;2023-04-25T13:45:26;5.30;;;2.35;;
56511;SDS011;42408;53.238;5.686;2023-04-25T13:47:52;9.47;;;2.23;;
56511;SDS011;42408;53.238;5.686;2023-04-25T13:50:18;5.87;;;1.97;;
56511;SDS011;42408;53.238;5.686;2023-04-25T13:52:43;7.53;;;2.37;;
56511;SDS011;42408;53.238;5.686;2023-04-25T13:55:10;9.07;;;2.70;;
56511;SDS011;42408;53.238;5.686;2023-04-25T13:57:36;10.48;;;2.35;;
56511;SDS011;42408;53.238;5.686;2023-04-25T14:00:03;8.53;;;2.37;;
56511;SDS011;42408;53.238;5.686;2023-04-25T14:02:34;10.98;;;2.50;;
56511;SDS011;42408;53.238;5.686;2023-04-25T14:05:00;11.55;;;2.40;;
56511;SDS011;42408;53.238;5.686;2023-04-25T14:07:26;10.70;;;2.03;;
56511;SDS011;42408;53.238;5.686;2023-04-25T14:09:52;8.00;;;2.40;;
56511;SDS011;42408;53.238;5.686;2023-04-25T14:12:18;8.40;;;2.30;;
56511;SDS011;42408;53.238;5.686;2023-04-25T14:14:43;8.87;;;2.87;;
56511;SDS011;42408;53.238;5.686;2023-04-25T14:17:09;7.83;;;2.53;;
56511;SDS011;42408;53.238;5.686;2023-04-25T14:19:35;10.53;;;2.60;;
56511;SDS011;42408;53.238;5.686;2023-04-25T14:22:02;7.22;;;2.65;;
56511;SDS011;42408;53.238;5.686;2023-04-25T14:24:28;6.53;;;2.07;;
56511;SDS011;42408;53.238;5.686;2023-04-25T14:26:54;11.53;;;2.57;;
56511;SDS011;42408;53.238;5.686;2023-04-25T14:29:19;8.00;;;2.17;;
56511;SDS011;42408;53.238;5.686;2023-04-25T14:31:45;7.63;;;2.40;;
56511;SDS011;42408;53.238;5.686;2023-04-25T14:34:10;7.90;;;2.20;;
56511;SDS011;42408;53.238;5.686;2023-04-25T14:36:36;8.90;;;2.43;;
56511;SDS011;42408;53.238;5.686;2023-04-25T14:39:02;8.50;;;2.00;;
56511;SDS011;42408;53.238;5.686;2023-04-25T14:41:29;7.18;;;2.17;;
56511;SDS011;42408;53.238;5.686;2023-04-25T14:43:55;10.00;;;2.37;;
56511;SDS011;42408;53.238;5.686;2023-04-25T14:46:22;7.35;;;2.20;;
56511;SDS011;42408;53.238;5.686;2023-04-25T14:48:48;7.72;;;2.40;;
56511;SDS011;42408;53.238;5.686;2023-04-25T14:51:14;7.30;;;2.20;;
56511;SDS011;42408;53.238;5.686;2023-04-25T14:53:40;10.20;;;2.10;;
56511;SDS011;42408;53.238;5.686;2023-04-25T14:56:06;8.70;;;2.20;;
56511;SDS011;42408;53.238;5.686;2023-04-25T14:58:32;6.25;;;2.20;;
56511;SDS011;42408;53.238;5.686;2023-04-25T15:00:58;9.97;;;2.83;;